Flight Track Log - Related Links

Times and Time Zones

All times are in EDT time to prevent confusion due to time zone crossing. See the CSN6839 flight status page for this flight to view local times or setup timezone preferences in your user account.

Time Position Orientation Groundspeed Altitude Reporting Facility
EDT Latitude Longitude Course Direction KTS MPH feet Rate Location/Type
Wed 04:29:00 AM 43.8293 87.3026 238° Southwest  Level Estimated
Wed 04:30:00 AM 43.7513 87.1313 238° Southwest  Level Estimated
Wed 04:31:00 AM 43.6730 86.9605 238° Southwest  Level Estimated
Wed 04:32:00 AM 43.5945 86.7902 238° Southwest  Level Estimated
Wed 04:33:00 AM 43.5157 86.6203 237° Southwest  Level Estimated
Wed 04:34:00 AM 43.4366 86.4508 237° Southwest  Level Estimated
Wed 04:35:00 AM 43.3573 86.2818 237° Southwest  Level Estimated
Wed 04:36:00 AM 43.2778 86.1132 237° Southwest  Level Estimated
Wed 04:37:00 AM 43.1980 85.9451 237° Southwest  Level Estimated
Wed 04:38:00 AM 43.1180 85.7774 237° Southwest  Level Estimated
Wed 04:39:00 AM 43.0377 85.6101 237° Southwest  Level Estimated
Wed 04:40:00 AM 42.9572 85.4433 237° Southwest  Level Estimated
Wed 04:41:00 AM 42.8764 85.2769 237° Southwest  Level Estimated
Wed 04:42:00 AM 42.7954 85.1110 236° Southwest  Level Estimated
Wed 04:43:00 AM 42.7142 84.9454 236° Southwest  Level Estimated
Wed 04:44:00 AM 42.6327 84.7804 236° Southwest  Level Estimated
Wed 04:45:00 AM 42.5510 84.6157 236° Southwest  Level Estimated
Wed 04:46:00 AM 42.4690 84.4515 236° Southwest  Level Estimated
Wed 04:47:00 AM 42.3869 84.2877 236° Southwest  Level Estimated
Wed 04:48:00 AM 42.3044 84.1244 236° Southwest  Level Estimated
Wed 04:49:00 AM 42.2218 83.9614 236° Southwest  Level Estimated
Wed 04:50:00 AM 42.1389 83.7989 236° Southwest  Level Estimated
Wed 04:51:00 AM 42.0558 83.6368 235° Southwest  Level Estimated
Wed 04:52:00 AM 41.9725 83.4752 235° Southwest  Level Estimated
Wed 04:53:00 AM 41.8889 83.3140 235° Southwest  Level Estimated
Wed 04:54:00 AM 41.8051 83.1532 235° Southwest  Level Estimated
Wed 04:55:00 AM 41.7211 82.9928 235° Southwest  Level Estimated
Wed 04:56:00 AM 41.7181 82.9869 235° Southwest  Level Estimated
Wed 04:57:00 AM 41.7181 82.9869 143° Southeast  Level Estimated
Wed 04:58:00 AM 41.7181 82.9869 143° Southeast  Level Estimated
Wed 04:59:00 AM 41.7181 82.9869 143° Southeast  Level Estimated
Wed 05:00:00 AM 41.7181 82.9869 143° Southeast  Level Estimated
Wed 05:01:00 AM 41.7181 82.9869 143° Southeast  Level Estimated
Wed 05:02:00 AM 41.7181 82.9869 143° Southeast  Level Estimated
Wed 05:03:00 AM 41.7181 82.9869 143° Southeast  Level Estimated
Wed 05:04:00 AM 41.7181 82.9869 143° Southeast  Level Estimated
Wed 05:05:00 AM 41.7181 82.9869 143° Southeast  Level Estimated
Wed 05:06:00 AM 41.7181 82.9869 143° Southeast  Level Estimated
Wed 05:07:00 AM 41.7181 82.9869 143° Southeast  Level Estimated
Wed 05:08:00 AM 41.7181 82.9869 143° Southeast  Level Estimated

Login

Don't have an account? Register now (free) for customized features, flight alerts, and more!